Time;durP1;ratioP1;P1;durP2;ratioP2;P2;SDS_P1;SDS_P2;PMS_P1;PMS_P2;Temp;Humidity;BMP_temperature;BMP_pressure;BME280_temperature;BME280_humidity;BME280_pressure;Samples;Min_cycle;Max_cycle;Signal;HPM_P1;HPM_P2
2022/04/07 00:00:40;;;;;;;3.33;2.38;;;;;;;11.45;nan;97112.19;4971971;28;20065;-61
2022/04/07 00:03:05;;;;;;;1.58;1.48;;;;;;;11.75;nan;97145.84;4971831;28;20117;-60
2022/04/07 00:05:31;;;;;;;8.63;4.85;;;;;;;11.81;nan;97153.28;4971033;28;20063;-59
2022/04/07 00:07:56;;;;;;;7.50;4.15;;;;;;;11.74;nan;97139.06;4970641;28;20042;-59
2022/04/07 00:10:21;;;;;;;9.20;5.60;;;;;;;11.86;nan;97151.31;4971690;28;20580;-59
2022/04/07 00:12:47;;;;;;;34.45;31.92;;;;;;;11.93;nan;97159.56;4969241;28;20044;-58
2022/04/07 00:15:12;;;;;;;13.13;7.90;;;;;;;12.04;nan;97147.03;4970161;28;20122;-59
2022/04/07 00:17:38;;;;;;;7.45;4.90;;;;;;;12.11;nan;97138.13;4970956;28;20539;-59
2022/04/07 00:20:05;;;;;;;8.25;5.22;;;;;;;12.20;nan;97132.53;4971417;28;20145;-60
2022/04/07 00:22:30;;;;;;;12.70;7.22;;;;;;;12.22;nan;97128.13;4969512;28;20034;-59
2022/04/07 00:24:56;;;;;;;4.85;3.90;;;;;;;12.36;nan;97133.44;4970300;28;20038;-63
2022/04/07 00:27:21;;;;;;;2.75;2.55;;;;;;;12.32;nan;97128.53;4971306;28;20520;-60
2022/04/07 00:29:47;;;;;;;1.40;1.30;;;;;;;12.20;nan;97126.56;4970936;28;20039;-60
2022/04/07 00:32:12;;;;;;;1.10;1.10;;;;;;;12.36;nan;97138.56;4968199;28;20030;-61
2022/04/07 00:34:39;;;;;;;2.55;1.70;;;;;;;12.44;nan;97140.75;4970737;28;20088;-61
2022/04/07 00:37:05;;;;;;;1.85;1.65;;;;;;;12.37;nan;97139.41;4971912;28;20030;-60
2022/04/07 00:39:31;;;;;;;1.88;1.25;;;;;;;12.44;nan;97125.34;4969385;28;20038;-60
2022/04/07 00:41:56;;;;;;;1.52;1.42;;;;;;;12.44;nan;97129.63;4969237;28;20042;-60
2022/04/07 00:44:25;;;;;;;1.42;1.33;;;;;;;12.40;nan;97118.69;4970091;28;20581;-60
2022/04/07 00:46:51;;;;;;;1.70;1.60;;;;;;;12.41;nan;97115.22;4974318;28;20084;-60
2022/04/07 00:49:16;;;;;;;2.92;2.65;;;;;;;12.52;nan;97123.19;4973174;28;20943;-60
2022/04/07 00:51:43;;;;;;;1.50;1.40;;;;;;;12.48;nan;97121.69;4972679;28;20040;-60
2022/04/07 00:54:10;;;;;;;5.05;3.72;;;;;;;12.51;nan;97125.88;4974169;28;20034;-60
2022/04/07 00:56:37;;;;;;;5.13;3.90;;;;;;;12.51;nan;97116.41;4973698;28;20035;-62
2022/04/07 00:59:05;;;;;;;2.17;2.08;;;;;;;12.67;nan;97130.16;4972646;28;20035;-60
2022/04/07 01:01:31;;;;;;;1.10;1.10;;;;;;;12.70;nan;97121.44;4971136;28;20053;-60
2022/04/07 01:03:57;;;;;;;2.88;1.30;;;;;;;12.70;nan;97122.28;4974766;28;20537;-60
2022/04/07 01:06:23;;;;;;;1.73;1.20;;;;;;;12.74;nan;97128.06;4975103;28;20046;-59
2022/04/07 01:08:49;;;;;;;1.42;1.25;;;;;;;12.69;nan;97119.75;4973090;28;20445;-60
2022/04/07 01:11:14;;;;;;;4.28;1.08;;;;;;;12.56;nan;97098.19;4972303;28;20630;-59
2022/04/07 01:13:50;;;;;;;1.30;1.20;;;;;;;12.74;nan;97122.94;4974359;28;20038;-63
2022/04/07 01:16:18;;;;;;;1.63;1.30;;;;;;;12.65;nan;97119.09;4973975;28;20096;-59
2022/04/07 01:18:44;;;;;;;1.80;1.58;;;;;;;12.62;nan;97121.84;4972318;28;20441;-59
2022/04/07 01:21:11;;;;;;;3.10;1.23;;;;;;;12.73;nan;97119.53;4971007;28;20758;-60
2022/04/07 01:23:38;;;;;;;1.10;1.10;;;;;;;12.61;nan;97117.59;4974460;28;20034;-59
2022/04/07 01:26:05;;;;;;;1.58;1.48;;;;;;;12.56;nan;97122.13;4975334;28;20217;-60
2022/04/07 01:28:32;;;;;;;1.13;1.13;;;;;;;12.45;nan;97106.44;4971513;28;20750;-60
2022/04/07 01:30:58;;;;;;;1.42;1.20;;;;;;;12.35;nan;97105.22;4972940;28;20586;-60
2022/04/07 01:33:24;;;;;;;1.23;1.17;;;;;;;12.38;nan;97105.09;4973238;28;20129;-60
2022/04/07 01:35:50;;;;;;;3.72;1.15;;;;;;;12.40;nan;97113.53;4974565;28;20361;-59
2022/04/07 01:38:18;;;;;;;1.63;1.20;;;;;;;12.47;nan;97114.09;4972249;28;20034;-59
2022/04/07 01:40:44;;;;;;;1.73;1.30;;;;;;;12.32;nan;97101.09;4974864;28;20626;-60
2022/04/07 01:43:11;;;;;;;1.05;0.88;;;;;;;12.23;nan;97111.81;4973110;28;20129;-60
2022/04/07 01:45:37;;;;;;;1.13;1.13;;;;;;;12.35;nan;97125.78;4972825;28;20031;-59
2022/04/07 01:48:03;;;;;;;1.05;1.00;;;;;;;12.27;nan;97126.19;4972590;28;20105;-59
2022/04/07 01:50:31;;;;;;;1.27;1.17;;;;;;;12.22;nan;97115.28;4973647;28;20031;-59
2022/04/07 01:52:57;;;;;;;0.93;0.93;;;;;;;12.24;nan;97128.06;4972544;28;20080;-59
2022/04/07 01:55:25;;;;;;;0.90;0.90;;;;;;;12.28;nan;97124.44;4974760;28;20766;-59
2022/04/07 01:57:51;;;;;;;0.88;0.88;;;;;;;12.29;nan;97123.53;4969881;28;20039;-59
2022/04/07 02:00:16;;;;;;;0.80;0.80;;;;;;;12.30;nan;97117.50;4972078;28;20888;-59
2022/04/07 02:02:42;;;;;;;1.02;1.02;;;;;;;12.29;nan;97100.41;4972872;28;20030;-60
2022/04/07 02:05:09;;;;;;;0.70;0.70;;;;;;;12.36;nan;97107.72;4970425;28;20130;-59
2022/04/07 02:07:36;;;;;;;0.82;0.82;;;;;;;12.28;nan;97111.59;4971573;28;20137;-59
2022/04/07 02:10:03;;;;;;;1.77;1.00;;;;;;;12.25;nan;97086.91;4973877;28;20050;-59
2022/04/07 02:12:29;;;;;;;1.00;1.00;;;;;;;12.34;nan;97098.44;4972624;28;20067;-60
2022/04/07 02:14:56;;;;;;;0.85;0.85;;;;;;;12.32;nan;97105.41;4970559;28;20078;-60
2022/04/07 02:17:22;;;;;;;1.00;1.00;;;;;;;12.33;nan;97096.78;4971633;28;20827;-60
2022/04/07 02:19:53;;;;;;;0.80;0.80;;;;;;;12.30;nan;97094.38;4972716;28;20084;-59
2022/04/07 02:22:19;;;;;;;0.98;0.93;;;;;;;12.25;nan;97089.47;4970981;28;20066;-60
2022/04/07 02:24:45;;;;;;;0.98;0.90;;;;;;;12.28;nan;97093.59;4971536;28;20066;-59
2022/04/07 02:27:11;;;;;;;1.65;0.75;;;;;;;12.17;nan;97083.06;4971187;28;20034;-60
2022/04/07 02:29:36;;;;;;;1.02;1.00;;;;;;;12.22;nan;97099.06;4972788;28;20034;-60
2022/04/07 02:32:03;;;;;;;0.95;0.90;;;;;;;12.27;nan;97085.06;4972552;28;20035;-60
2022/04/07 02:34:29;;;;;;;0.60;0.60;;;;;;;12.25;nan;97088.63;4971805;28;20070;-60
2022/04/07 02:36:54;;;;;;;0.98;0.98;;;;;;;12.29;nan;97095.28;4971448;28;20027;-60
2022/04/07 02:39:19;;;;;;;1.30;0.70;;;;;;;12.26;nan;97069.75;4972768;28;20518;-60
2022/04/07 02:41:45;;;;;;;0.75;0.63;;;;;;;12.34;nan;97088.16;4972459;28;20054;-60
2022/04/07 02:44:10;;;;;;;1.33;0.60;;;;;;;12.36;nan;97088.91;4970445;28;20026;-60
2022/04/07 02:46:36;;;;;;;1.13;1.00;;;;;;;12.40;nan;97080.13;4973062;28;20038;-60
2022/04/07 02:49:01;;;;;;;0.90;0.90;;;;;;;12.31;nan;97071.16;4972882;28;20038;-60
2022/04/07 02:51:27;;;;;;;1.20;0.80;;;;;;;12.46;nan;97079.00;4972203;28;20041;-60
2022/04/07 02:53:57;;;;;;;0.93;0.93;;;;;;;12.45;nan;97079.91;4969705;28;20030;-60
2022/04/07 02:56:24;;;;;;;0.85;0.85;;;;;;;12.31;nan;97070.31;4971827;28;20541;-60
2022/04/07 02:58:49;;;;;;;0.70;0.70;;;;;;;12.31;nan;97065.19;4972975;28;20053;-60
2022/04/07 03:01:15;;;;;;;0.98;0.80;;;;;;;12.38;nan;97078.56;4971298;28;20039;-60
2022/04/07 03:03:41;;;;;;;0.90;0.90;;;;;;;12.33;nan;97071.91;4969682;28;20473;-59
2022/04/07 03:06:06;;;;;;;0.75;0.75;;;;;;;12.26;nan;97069.75;4973381;28;20508;-60
2022/04/07 03:08:33;;;;;;;0.50;0.50;;;;;;;12.27;nan;97081.66;4971654;28;20145;-60
2022/04/07 03:11:02;;;;;;;0.63;0.63;;;;;;;12.14;nan;97089.16;4975373;28;20038;-59
2022/04/07 03:13:27;;;;;;;1.30;0.80;;;;;;;12.08;nan;97078.38;4970795;28;20627;-58
2022/04/07 03:15:53;;;;;;;2.22;0.80;;;;;;;12.05;nan;97092.19;4971889;28;20054;-59
2022/04/07 03:18:20;;;;;;;0.63;0.63;;;;;;;12.01;nan;97082.97;4971423;28;20031;-59
2022/04/07 03:20:45;;;;;;;0.73;0.73;;;;;;;11.83;nan;97095.00;4969948;28;20516;-60
2022/04/07 03:23:11;;;;;;;0.40;0.40;;;;;;;11.79;nan;97100.34;4970815;28;20041;-60
2022/04/07 03:25:37;;;;;;;0.60;0.60;;;;;;;11.65;nan;97084.72;4972656;28;20030;-60
2022/04/07 03:28:06;;;;;;;0.82;0.82;;;;;;;11.53;nan;97093.84;4970696;28;20065;-60
2022/04/07 03:30:32;;;;;;;0.60;0.60;;;;;;;11.37;nan;97093.72;4969317;28;20114;-61
2022/04/07 03:32:57;;;;;;;0.55;0.55;;;;;;;11.13;nan;97094.88;4970589;28;20035;-60
2022/04/07 03:35:23;;;;;;;0.50;0.50;;;;;;;11.08;nan;97091.69;4972467;28;20038;-60
2022/04/07 03:37:48;;;;;;;0.73;0.73;;;;;;;10.83;nan;97089.38;4969261;28;20038;-61
2022/04/07 03:40:13;;;;;;;1.15;1.13;;;;;;;10.68;nan;97091.81;4972421;28;20038;-62
2022/04/07 03:42:39;;;;;;;2.83;1.07;;;;;;;10.42;nan;97092.94;4974815;28;20113;-59
2022/04/07 03:45:05;;;;;;;2.87;0.70;;;;;;;10.29;nan;97099.47;4975453;28;20477;-59
2022/04/07 03:47:31;;;;;;;1.10;0.70;;;;;;;10.18;nan;97111.91;4972169;28;20520;-59
2022/04/07 03:49:57;;;;;;;1.33;0.80;;;;;;;10.09;nan;97116.50;4974172;28;20038;-59
2022/04/07 03:52:22;;;;;;;0.93;0.73;;;;;;;10.02;nan;97127.03;4975032;28;20037;-58
2022/04/07 03:54:48;;;;;;;0.90;0.83;;;;;;;10.00;nan;97129.66;4974620;28;20046;-58
2022/04/07 03:57:14;;;;;;;0.90;0.90;;;;;;;9.91;nan;97124.91;4972712;28;20046;-63
2022/04/07 03:59:42;;;;;;;3.00;0.93;;;;;;;9.83;nan;97129.53;4972152;28;20053;-60
2022/04/07 04:02:08;;;;;;;1.33;1.00;;;;;;;9.76;nan;97130.63;4974493;28;20046;-59
2022/04/07 04:04:34;;;;;;;0.87;0.80;;;;;;;9.77;nan;97134.03;4971266;28;20034;-59
2022/04/07 04:07:00;;;;;;;1.10;0.93;;;;;;;9.75;nan;97144.34;4968018;28;20034;-59
2022/04/07 04:09:25;;;;;;;2.90;1.10;;;;;;;9.75;nan;97146.91;4970775;28;20120;-59
2022/04/07 04:11:52;;;;;;;0.80;0.80;;;;;;;9.76;nan;97140.06;4972155;28;20034;-59
2022/04/07 04:14:17;;;;;;;2.63;1.23;;;;;;;9.65;nan;97127.69;4971887;28;20057;-59
2022/04/07 04:16:43;;;;;;;1.20;1.00;;;;;;;9.73;nan;97135.03;4971549;28;20030;-60
2022/04/07 04:19:09;;;;;;;0.87;0.87;;;;;;;9.67;nan;97135.31;4967973;28;21018;-60
2022/04/07 04:21:34;;;;;;;0.70;0.70;;;;;;;9.63;nan;97126.94;4970195;28;20030;-59
2022/04/07 04:24:00;;;;;;;0.87;0.70;;;;;;;9.69;nan;97136.91;4970544;28;20043;-58
2022/04/07 04:26:26;;;;;;;0.90;0.90;;;;;;;9.66;nan;97128.50;4969418;28;20030;-59
2022/04/07 04:28:52;;;;;;;2.23;1.10;;;;;;;9.60;nan;97116.78;4968544;28;20023;-58
2022/04/07 04:31:17;;;;;;;2.00;0.80;;;;;;;9.68;nan;97135.22;4971100;28;20057;-60
2022/04/07 04:33:43;;;;;;;1.40;0.80;;;;;;;9.60;nan;97109.13;4969204;28;20061;-59
2022/04/07 04:36:09;;;;;;;1.83;1.00;;;;;;;9.56;nan;97112.69;4968089;28;20104;-57
2022/04/07 04:38:34;;;;;;;1.20;0.70;;;;;;;9.54;nan;97120.44;4970159;28;20643;-58
2022/04/07 04:41:00;;;;;;;1.63;0.90;;;;;;;9.66;nan;97124.22;4971087;28;20127;-59
2022/04/07 04:43:25;;;;;;;3.27;1.30;;;;;;;9.64;nan;97126.00;4969432;28;20140;-58
2022/04/07 04:45:51;;;;;;;2.50;1.30;;;;;;;9.69;nan;97126.66;4969670;28;20066;-59
2022/04/07 04:48:16;;;;;;;1.47;0.80;;;;;;;9.72;nan;97126.53;4970587;28;20027;-59
2022/04/07 04:50:42;;;;;;;0.70;0.70;;;;;;;9.80;nan;97131.38;4972118;28;20040;-58
2022/04/07 04:53:07;;;;;;;0.93;0.93;;;;;;;9.81;nan;97120.22;4969435;28;20038;-58
2022/04/07 04:55:32;;;;;;;1.60;0.80;;;;;;;9.83;nan;97121.84;4968143;28;20508;-58
2022/04/07 04:57:58;;;;;;;0.50;0.50;;;;;;;9.85;nan;97114.06;4970924;28;20039;-59
2022/04/07 05:00:23;;;;;;;1.20;0.60;;;;;;;9.90;nan;97122.41;4972067;28;20121;-59
2022/04/07 05:02:49;;;;;;;0.90;0.80;;;;;;;9.89;nan;97126.69;4967029;28;20023;-59
2022/04/07 05:05:14;;;;;;;0.60;0.60;;;;;;;9.86;nan;97123.44;4969066;28;20034;-58
2022/04/07 05:07:40;;;;;;;0.50;0.50;;;;;;;9.91;nan;97126.66;4971293;28;20034;-59
2022/04/07 05:10:06;;;;;;;2.20;0.90;;;;;;;9.99;nan;97128.00;4971962;28;20050;-59
2022/04/07 05:12:31;;;;;;;2.00;1.20;;;;;;;10.02;nan;97127.03;4968548;28;20535;-61
2022/04/07 05:14:57;;;;;;;0.80;0.80;;;;;;;10.07;nan;97135.34;4969191;28;20050;-60
2022/04/07 05:17:22;;;;;;;0.90;0.90;;;;;;;10.11;nan;97134.34;4974404;28;20046;-61
2022/04/07 05:19:49;;;;;;;0.73;0.73;;;;;;;10.15;nan;97129.91;4970712;28;20038;-59
2022/04/07 05:22:14;;;;;;;1.10;0.70;;;;;;;10.16;nan;97134.19;4968976;28;20030;-59
2022/04/07 05:24:40;;;;;;;0.57;0.57;;;;;;;10.14;nan;97136.78;4968768;28;20034;-59
2022/04/07 05:27:05;;;;;;;0.67;0.67;;;;;;;10.14;nan;97135.97;4970919;28;20026;-60
2022/04/07 05:29:31;;;;;;;1.87;1.77;;;;;;;10.22;nan;97141.63;4970298;28;20117;-60
2022/04/07 05:31:56;;;;;;;0.90;0.80;;;;;;;10.10;nan;97137.78;4971062;28;20110;-60
2022/04/07 05:34:22;;;;;;;0.70;0.70;;;;;;;10.08;nan;97129.34;4971530;28;20046;-59
2022/04/07 05:36:47;;;;;;;0.70;0.70;;;;;;;10.16;nan;97145.25;4971854;28;20559;-59
2022/04/07 05:39:13;;;;;;;0.80;0.80;;;;;;;10.24;nan;97139.81;4969590;28;20035;-60
2022/04/07 05:41:39;;;;;;;0.93;0.70;;;;;;;10.31;nan;97144.63;4972896;28;20173;-59
2022/04/07 05:44:05;;;;;;;0.87;0.87;;;;;;;10.19;nan;97128.94;4972724;28;20038;-59
2022/04/07 05:46:30;;;;;;;0.90;0.90;;;;;;;10.30;nan;97142.13;4974074;28;20042;-59
2022/04/07 05:48:55;;;;;;;0.87;0.87;;;;;;;10.34;nan;97148.78;4972243;28;20066;-58
2022/04/07 05:51:21;;;;;;;1.07;0.90;;;;;;;10.40;nan;97148.53;4971862;28;20042;-59
2022/04/07 05:53:46;;;;;;;1.10;1.03;;;;;;;10.46;nan;97143.16;4972934;28;20022;-59
2022/04/07 05:56:12;;;;;;;1.00;1.00;;;;;;;10.54;nan;97135.97;4973419;28;20038;-59
2022/04/07 05:58:37;;;;;;;0.90;0.90;;;;;;;10.58;nan;97137.50;4972956;28;20626;-59
2022/04/07 06:01:03;;;;;;;1.00;1.00;;;;;;;10.51;nan;97129.25;4972834;28;20493;-59
2022/04/07 06:03:28;;;;;;;1.10;1.10;;;;;;;10.60;nan;97140.00;4971366;28;20049;-60
2022/04/07 06:05:53;;;;;;;1.08;1.02;;;;;;;10.67;nan;97144.78;4971632;28;20080;-60
2022/04/07 06:08:20;;;;;;;0.90;0.90;;;;;;;10.76;nan;97143.56;4972699;28;20722;-61
2022/04/07 06:10:45;;;;;;;1.30;1.20;;;;;;;10.69;nan;97130.19;4971401;28;20050;-58
2022/04/07 06:13:11;;;;;;;1.13;1.08;;;;;;;10.72;nan;97135.19;4972159;28;20481;-59
2022/04/07 06:15:39;;;;;;;1.10;1.10;;;;;;;10.69;nan;97132.75;4973593;28;20076;-59
2022/04/07 06:18:05;;;;;;;1.35;1.20;;;;;;;10.81;nan;97129.66;4972844;28;20049;-59
2022/04/07 06:20:31;;;;;;;1.08;1.08;;;;;;;10.84;nan;97121.81;4972378;28;20038;-59
2022/04/07 06:22:57;;;;;;;1.38;1.27;;;;;;;10.97;nan;97135.78;4972854;28;20069;-59
2022/04/07 06:25:22;;;;;;;1.45;1.25;;;;;;;10.98;nan;97126.34;4973731;28;20034;-60
2022/04/07 06:27:48;;;;;;;1.42;1.33;;;;;;;10.96;nan;97130.69;4970575;28;20614;-60
2022/04/07 06:30:19;;;;;;;1.75;1.65;;;;;;;11.21;nan;97138.94;4971221;28;20042;-60
2022/04/07 06:32:45;;;;;;;1.55;1.45;;;;;;;11.16;nan;97135.75;4972890;28;20083;-60
2022/04/07 06:35:12;;;;;;;2.92;1.90;;;;;;;11.37;nan;97139.09;4974171;28;20150;-60
2022/04/07 06:37:52;;;;;;;1.60;1.50;;;;;;;11.50;nan;97135.03;4971661;28;20034;-60
2022/04/07 06:40:20;;;;;;;4.53;1.95;;;;;;;11.60;nan;97138.84;4985546;28;20042;-60
2022/04/07 06:42:46;;;;;;;5.18;1.40;;;;;;;11.77;nan;97133.78;4972608;28;20062;-60
2022/04/07 06:45:11;;;;;;;2.00;1.88;;;;;;;11.88;nan;97128.97;4973317;28;20125;-59
2022/04/07 06:47:38;;;;;;;2.40;1.70;;;;;;;11.95;nan;97126.09;4970691;28;20031;-60
2022/04/07 06:50:05;;;;;;;2.45;1.70;;;;;;;11.96;nan;97108.06;4972504;28;20038;-60
2022/04/07 06:52:31;;;;;;;12.63;2.33;;;;;;;11.95;nan;97111.53;4972325;28;20026;-60
2022/04/07 06:54:56;;;;;;;5.35;1.83;;;;;;;12.18;nan;97123.22;4971250;28;20030;-59
2022/04/07 06:57:22;;;;;;;2.22;1.95;;;;;;;12.14;nan;97111.44;4970105;28;20058;-59
2022/04/07 06:59:47;;;;;;;5.18;1.80;;;;;;;12.29;nan;97115.84;4971558;28;20429;-59
2022/04/07 07:02:12;;;;;;;1.63;1.52;;;;;;;12.31;nan;97130.25;4973028;28;20035;-60
2022/04/07 07:04:38;;;;;;;2.30;2.10;;;;;;;12.44;nan;97114.22;4972887;28;20030;-60
2022/04/07 07:07:03;;;;;;;1.40;1.38;;;;;;;12.56;nan;97113.63;4968531;28;20798;-58
2022/04/07 07:09:29;;;;;;;1.70;1.60;;;;;;;12.63;nan;97115.78;4971563;28;20096;-59
2022/04/07 07:11:54;;;;;;;11.27;2.47;;;;;;;12.65;nan;97111.38;4971982;28;20151;-56
2022/04/07 07:14:20;;;;;;;2.03;1.70;;;;;;;12.70;nan;97122.28;4972665;28;20030;-59
2022/04/07 07:16:45;;;;;;;1.75;1.65;;;;;;;12.75;nan;97107.44;4969329;28;20711;-59
2022/04/07 07:19:10;;;;;;;1.77;1.67;;;;;;;12.79;nan;97116.66;4971059;28;20038;-59
2022/04/07 07:21:37;;;;;;;1.50;1.40;;;;;;;12.97;nan;97121.75;4973333;28;20508;-61
2022/04/07 07:24:03;;;;;;;2.50;1.73;;;;;;;12.77;nan;97123.59;4969720;28;20030;-59
2022/04/07 07:26:28;;;;;;;1.98;1.70;;;;;;;12.96;nan;97125.22;4969553;28;20035;-60
2022/04/07 07:28:54;;;;;;;1.90;1.70;;;;;;;13.08;nan;97122.00;4972651;28;20041;-60
2022/04/07 07:31:19;;;;;;;1.60;1.50;;;;;;;13.01;nan;97125.81;4970883;28;20057;-59
2022/04/07 07:33:45;;;;;;;2.10;1.50;;;;;;;13.24;nan;97125.44;4968897;28;20465;-60
2022/04/07 07:36:11;;;;;;;1.77;1.65;;;;;;;13.20;nan;97127.34;4970072;28;20442;-58
2022/04/07 07:38:36;;;;;;;1.65;1.30;;;;;;;13.29;nan;97128.59;4972985;28;20089;-58
2022/04/07 07:41:01;;;;;;;2.08;1.35;;;;;;;13.33;nan;97106.94;4972690;28;20042;-58
2022/04/07 07:43:27;;;;;;;2.38;0.90;;;;;;;13.56;nan;97121.13;4968463;28;20055;-64
2022/04/07 07:45:52;;;;;;;3.45;1.23;;;;;;;13.49;nan;97122.41;4970547;28;20412;-60
2022/04/07 07:48:31;;;;;;;2.95;1.02;;;;;;;13.67;nan;97127.34;4974067;28;20031;-60
2022/04/07 07:50:58;;;;;;;1.10;1.00;;;;;;;13.72;nan;97120.19;4972672;28;20047;-61
2022/04/07 07:53:24;;;;;;;1.02;0.93;;;;;;;13.73;nan;97111.56;4971156;28;20038;-61
2022/04/07 07:55:50;;;;;;;0.90;0.90;;;;;;;13.66;nan;97119.72;4970844;28;20495;-61
2022/04/07 07:58:15;;;;;;;1.17;1.13;;;;;;;13.78;nan;97108.75;4970851;28;20042;-61
2022/04/07 08:00:41;;;;;;;3.70;1.00;;;;;;;13.72;nan;97103.91;4970061;28;20391;-60
2022/04/07 08:03:07;;;;;;;1.30;1.20;;;;;;;13.70;nan;97090.31;4967501;28;20062;-61
2022/04/07 08:05:33;;;;;;;2.88;1.10;;;;;;;13.76;nan;97092.53;4970046;28;20070;-60
2022/04/07 08:07:58;;;;;;;1.23;1.15;;;;;;;13.96;nan;97104.28;4971052;28;20046;-60
2022/04/07 08:10:24;;;;;;;1.58;1.48;;;;;;;13.95;nan;97100.88;4970117;28;20058;-60
2022/04/07 08:12:49;;;;;;;1.00;1.00;;;;;;;13.97;nan;97103.34;4969760;28;20130;-60
2022/04/07 08:15:15;;;;;;;2.03;1.92;;;;;;;14.41;nan;97099.09;4971398;28;20059;-60
2022/04/07 08:17:40;;;;;;;1.17;1.02;;;;;;;14.46;nan;97099.66;4972736;28;20450;-59
2022/04/07 08:20:10;;;;;;;1.02;1.02;;;;;;;14.59;nan;97089.44;4968490;28;20448;-60
2022/04/07 08:22:35;;;;;;;3.33;1.30;;;;;;;14.56;nan;97084.44;4970178;28;20031;-60
2022/04/07 08:25:01;;;;;;;1.02;0.98;;;;;;;14.45;nan;97092.81;4970816;28;20491;-61
2022/04/07 08:27:26;;;;;;;2.33;0.80;;;;;;;14.32;nan;97081.53;4970490;28;20461;-61
2022/04/07 08:29:52;;;;;;;0.90;0.90;;;;;;;14.59;nan;97092.84;4967394;28;20133;-61
2022/04/07 08:32:18;;;;;;;1.73;0.90;;;;;;;14.80;nan;97092.47;4969344;28;20045;-61
2022/04/07 08:34:44;;;;;;;1.83;1.08;;;;;;;14.91;nan;97090.91;4970491;28;20745;-61
2022/04/07 08:37:09;;;;;;;1.23;1.00;;;;;;;15.28;nan;97086.03;4971910;28;20042;-62
2022/04/07 08:39:34;;;;;;;0.65;0.65;;;;;;;15.34;nan;97083.09;4968454;28;20051;-61
2022/04/07 08:42:04;;;;;;;1.95;0.90;;;;;;;15.36;nan;97082.03;4968856;28;20607;-59
2022/04/07 08:44:33;;;;;;;0.80;0.80;;;;;;;15.51;nan;97081.13;4972212;28;20030;-60
2022/04/07 08:47:00;;;;;;;1.00;1.00;;;;;;;15.64;nan;97075.19;4973037;28;20042;-59
2022/04/07 08:49:29;;;;;;;2.45;1.25;;;;;;;15.56;nan;97064.50;4970158;28;20042;-60
2022/04/07 08:51:55;;;;;;;0.80;0.80;;;;;;;15.74;nan;97060.75;4970272;28;20038;-59
2022/04/07 08:54:21;;;;;;;1.20;1.20;;;;;;;15.93;nan;97068.94;4973709;28;20097;-60
2022/04/07 08:56:48;;;;;;;0.98;0.98;;;;;;;15.81;nan;97074.91;4972773;28;20455;-60
2022/04/07 08:59:13;;;;;;;0.80;0.80;;;;;;;15.56;nan;97073.09;4968552;28;20165;-60
2022/04/07 09:01:39;;;;;;;0.95;0.90;;;;;;;15.55;nan;97068.84;4971166;28;20030;-60
2022/04/07 09:04:04;;;;;;;0.80;0.80;;;;;;;15.53;nan;97081.84;4969292;28;20031;-60
2022/04/07 09:06:35;;;;;;;0.90;0.90;;;;;;;15.62;nan;97064.09;4971690;28;20035;-61
2022/04/07 09:09:16;;;;;;;1.23;1.08;;;;;;;16.05;nan;97060.38;4973599;28;20035;-60
2022/04/07 09:11:43;;;;;;;1.38;1.13;;;;;;;15.81;nan;97051.66;4973768;28;20784;-61
2022/04/07 09:14:10;;;;;;;0.80;0.80;;;;;;;15.75;nan;97070.97;4973369;28;20062;-62
2022/04/07 09:16:38;;;;;;;0.70;0.70;;;;;;;15.47;nan;97060.72;4971975;28;20560;-61
2022/04/07 09:19:04;;;;;;;1.98;1.08;;;;;;;15.58;nan;97078.13;4980868;28;20038;-57
2022/04/07 09:21:31;;;;;;;0.82;0.82;;;;;;;15.29;nan;97054.13;4972762;28;20491;-61
2022/04/07 09:23:58;;;;;;;2.45;1.00;;;;;;;15.45;nan;97059.97;4975028;28;20030;-61
2022/04/07 09:26:24;;;;;;;0.98;0.98;;;;;;;15.54;nan;97057.69;4972149;28;20057;-61
2022/04/07 09:28:54;;;;;;;0.95;0.95;;;;;;;15.42;nan;97040.34;4971068;28;20026;-64
2022/04/07 09:31:22;;;;;;;0.90;0.90;;;;;;;15.62;nan;97053.75;4974298;28;20796;-61
2022/04/07 09:33:57;;;;;;;1.10;1.02;;;;;;;15.29;nan;97025.72;4974715;28;20101;-59
2022/04/07 09:36:23;;;;;;;0.80;0.80;;;;;;;15.61;nan;97041.78;4973229;28;20042;-65
2022/04/07 09:38:55;;;;;;;1.40;0.90;;;;;;;15.48;nan;97016.72;4972404;28;20060;-68
2022/04/07 09:44:42;;;;;;;0.90;0.90;;;;;;;16.19;nan;97025.88;4971489;28;20089;-61
2022/04/07 09:47:13;;;;;;;1.15;0.90;;;;;;;16.14;nan;97012.41;4964066;28;20043;-61
2022/04/07 09:53:06;;;;;;;0.88;0.88;;;;;;;16.33;nan;97015.44;4973098;28;20784;-60
2022/04/07 09:55:43;;;;;;;1.00;1.00;;;;;;;16.07;nan;97004.25;4958564;28;20042;-60
2022/04/07 09:58:11;;;;;;;0.98;0.98;;;;;;;16.10;nan;97000.63;4966647;28;20109;-61
2022/04/07 10:00:37;;;;;;;0.82;0.82;;;;;;;16.29;nan;96999.28;4968114;28;20058;-63
2022/04/07 10:03:04;;;;;;;0.85;0.85;;;;;;;16.33;nan;97005.09;4967468;28;20157;-63
2022/04/07 10:05:30;;;;;;;1.13;1.00;;;;;;;16.28;nan;96987.28;4962262;28;20096;-60
2022/04/07 10:07:59;;;;;;;1.58;1.10;;;;;;;16.26;nan;96983.97;4959058;28;20634;-61
2022/04/07 10:10:25;;;;;;;3.28;0.85;;;;;;;16.43;nan;96990.56;4943840;28;20088;-61
2022/04/07 10:12:51;;;;;;;0.90;0.90;;;;;;;16.29;nan;96968.25;4937606;28;20749;-60
2022/04/07 10:15:18;;;;;;;1.50;0.80;;;;;;;16.37;nan;96996.19;4958682;28;20445;-61
2022/04/07 10:17:44;;;;;;;1.58;1.00;;;;;;;16.30;nan;96988.00;4971458;28;20053;-61
2022/04/07 10:20:13;;;;;;;1.02;1.02;;;;;;;16.33;nan;96992.16;4971807;28;20034;-61
2022/04/07 10:23:06;;;;;;;0.70;0.70;;;;;;;16.48;nan;96998.00;4971792;28;20033;-60
2022/04/07 10:45:51;;;;;;;1.48;1.35;;;;;;;17.41;nan;96959.44;4975071;28;20152;-61
2022/04/07 10:58:46;;;;;;;1.10;1.10;;;;;;;17.40;nan;96939.63;4974088;28;20053;-59
2022/04/07 11:25:04;;;;;;;2.25;1.35;;;;;;;17.63;nan;96874.00;4945654;28;20054;-61
2022/04/07 11:27:37;;;;;;;1.20;1.20;;;;;;;17.57;nan;96884.78;4928511;28;20138;-62
2022/04/07 11:36:52;;;;;;;2.03;1.40;;;;;;;17.91;nan;96861.56;4948348;28;20122;-61
2022/04/07 11:39:19;;;;;;;2.35;2.00;;;;;;;18.31;nan;96857.53;4948654;28;20671;-62
2022/04/07 11:41:49;;;;;;;1.13;1.13;;;;;;;18.62;nan;96868.94;4941451;28;20495;-60
2022/04/07 11:44:20;;;;;;;1.35;1.35;;;;;;;18.57;nan;96865.88;4947426;28;20122;-61
2022/04/07 11:46:46;;;;;;;1.60;1.50;;;;;;;18.34;nan;96854.69;4909810;28;20074;-62
2022/04/07 11:49:13;;;;;;;3.83;1.33;;;;;;;18.43;nan;96858.31;4948542;28;20170;-62
2022/04/07 11:51:39;;;;;;;1.50;1.50;;;;;;;18.67;nan;96843.44;4924751;28;20039;-61
2022/04/07 11:54:05;;;;;;;1.60;1.33;;;;;;;18.73;nan;96821.34;4948827;28;20742;-59
2022/04/07 11:56:32;;;;;;;1.15;1.05;;;;;;;18.73;nan;96814.38;4919981;28;20034;-63
2022/04/07 11:59:11;;;;;;;1.58;1.48;;;;;;;18.82;nan;96837.00;4939655;28;20035;-59
2022/04/07 12:01:46;;;;;;;6.80;1.67;;;;;;;19.15;nan;96843.81;4949853;28;20031;-61
2022/04/07 12:04:13;;;;;;;1.27;1.27;;;;;;;19.09;nan;96827.00;4951583;28;20035;-61
2022/04/07 12:06:43;;;;;;;2.35;1.40;;;;;;;19.10;nan;96830.38;4960568;28;20027;-61
2022/04/07 12:09:09;;;;;;;2.38;1.17;;;;;;;19.03;nan;96824.88;4950884;28;20027;-61
2022/04/07 12:11:37;;;;;;;1.40;1.30;;;;;;;19.27;nan;96811.63;4949051;28;20134;-65
2022/04/07 12:14:11;;;;;;;1.15;1.10;;;;;;;19.47;nan;96807.44;4953828;28;20379;-61
2022/04/07 12:16:46;;;;;;;1.40;1.30;;;;;;;19.25;nan;96807.53;4952797;28;20930;-60
2022/04/07 12:19:11;;;;;;;2.33;1.23;;;;;;;19.05;nan;96791.78;4948387;28;20035;-61
2022/04/07 12:22:09;;;;;;;2.75;1.50;;;;;;;19.23;nan;96788.63;4950613;28;20054;-62
2022/04/07 12:24:34;;;;;;;1.63;1.13;;;;;;;19.27;nan;96780.44;4943248;28;20509;-63
2022/04/07 12:27:00;;;;;;;1.95;1.23;;;;;;;19.03;nan;96777.31;4972158;28;20504;-63
2022/04/07 12:29:31;;;;;;;2.05;1.40;;;;;;;19.25;nan;96779.78;4966215;28;20062;-64
2022/04/07 12:32:06;;;;;;;1.27;1.20;;;;;;;19.41;nan;96769.75;4969280;28;20042;-61
2022/04/07 12:34:33;;;;;;;1.98;1.30;;;;;;;19.28;nan;96769.13;4972406;28;20450;-61
2022/04/07 12:37:00;;;;;;;1.13;1.13;;;;;;;19.32;nan;96761.88;4970583;28;20528;-62
2022/04/07 12:39:35;;;;;;;2.97;1.58;;;;;;;19.35;nan;96757.25;4968302;28;20484;-61
2022/04/07 12:42:08;;;;;;;;;;;;;;;19.49;nan;96753.53;4970895;28;20630;-62
2022/04/07 12:44:35;;;;;;;1.25;1.15;;;;;;;19.89;nan;96749.16;4971803;28;20004;-60
2022/04/07 12:47:13;;;;;;;1.45;1.35;;;;;;;19.74;nan;96744.44;4952906;28;20069;-61
2022/04/07 12:49:40;;;;;;;1.38;1.30;;;;;;;19.83;nan;96749.69;4962853;28;20050;-61
2022/04/07 12:52:14;;;;;;;1.40;1.30;;;;;;;19.74;nan;96747.88;4967976;28;20492;-60
2022/04/07 12:54:59;;;;;;;1.20;1.10;;;;;;;19.79;nan;96743.09;4956816;28;20524;-60
2022/04/07 12:57:38;;;;;;;1.90;1.20;;;;;;;19.98;nan;96726.75;4964665;28;20575;-60